sensor_id;sensor_type;location;lat;lon;timestamp;P1;durP1;ratioP1;P2;durP2;ratioP2
7460;SDS011;6757;52.258;12.840;2024-02-26T00:01:32;0.60;;;0.60;;
7460;SDS011;6757;52.258;12.840;2024-02-26T00:03:59;1.35;;;0.77;;
7460;SDS011;6757;52.258;12.840;2024-02-26T00:06:29;0.65;;;0.40;;
7460;SDS011;6757;52.258;12.840;2024-02-26T00:08:55;0.38;;;0.35;;
7460;SDS011;6757;52.258;12.840;2024-02-26T00:11:22;0.85;;;0.52;;
7460;SDS011;6757;52.258;12.840;2024-02-26T00:13:50;0.80;;;0.57;;
7460;SDS011;6757;52.258;12.840;2024-02-26T00:16:18;0.82;;;0.82;;
7460;SDS011;6757;52.258;12.840;2024-02-26T00:18:46;0.13;;;0.13;;
7460;SDS011;6757;52.258;12.840;2024-02-26T00:21:13;0.38;;;0.38;;
7460;SDS011;6757;52.258;12.840;2024-02-26T00:23:43;0.10;;;0.10;;
7460;SDS011;6757;52.258;12.840;2024-02-26T00:26:09;0.88;;;0.88;;
7460;SDS011;6757;52.258;12.840;2024-02-26T00:28:37;0.38;;;0.38;;
7460;SDS011;6757;52.258;12.840;2024-02-26T00:31:04;1.00;;;0.40;;
7460;SDS011;6757;52.258;12.840;2024-02-26T00:33:30;0.15;;;0.15;;
7460;SDS011;6757;52.258;12.840;2024-02-26T00:35:58;0.22;;;0.22;;
7460;SDS011;6757;52.258;12.840;2024-02-26T00:38:25;0.57;;;0.22;;
7460;SDS011;6757;52.258;12.840;2024-02-26T00:40:53;0.95;;;0.60;;
7460;SDS011;6757;52.258;12.840;2024-02-26T00:43:21;0.65;;;0.65;;
7460;SDS011;6757;52.258;12.840;2024-02-26T00:45:48;0.50;;;0.50;;
7460;SDS011;6757;52.258;12.840;2024-02-26T00:48:17;0.10;;;0.10;;
7460;SDS011;6757;52.258;12.840;2024-02-26T00:50:47;0.93;;;0.65;;
7460;SDS011;6757;52.258;12.840;2024-02-26T00:53:14;0.13;;;0.13;;
7460;SDS011;6757;52.258;12.840;2024-02-26T00:55:42;0.08;;;0.08;;
7460;SDS011;6757;52.258;12.840;2024-02-26T00:58:10;0.75;;;0.68;;
7460;SDS011;6757;52.258;12.840;2024-02-26T01:00:37;0.47;;;0.47;;
7460;SDS011;6757;52.258;12.840;2024-02-26T01:03:06;0.35;;;0.35;;
7460;SDS011;6757;52.258;12.840;2024-02-26T01:05:35;0.20;;;0.20;;
7460;SDS011;6757;52.258;12.840;2024-02-26T01:08:03;0.75;;;0.30;;
7460;SDS011;6757;52.258;12.840;2024-02-26T01:10:32;1.55;;;0.68;;
7460;SDS011;6757;52.258;12.840;2024-02-26T01:12:59;0.85;;;0.73;;
7460;SDS011;6757;52.258;12.840;2024-02-26T01:15:28;0.55;;;0.28;;
7460;SDS011;6757;52.258;12.840;2024-02-26T01:17:57;0.73;;;0.73;;
7460;SDS011;6757;52.258;12.840;2024-02-26T01:20:24;0.32;;;0.30;;
7460;SDS011;6757;52.258;12.840;2024-02-26T01:22:51;0.20;;;0.20;;
7460;SDS011;6757;52.258;12.840;2024-02-26T01:25:18;0.68;;;0.68;;
7460;SDS011;6757;52.258;12.840;2024-02-26T01:27:45;0.38;;;0.38;;
7460;SDS011;6757;52.258;12.840;2024-02-26T01:30:11;0.25;;;0.20;;
7460;SDS011;6757;52.258;12.840;2024-02-26T01:32:42;0.50;;;0.50;;
7460;SDS011;6757;52.258;12.840;2024-02-26T01:35:09;0.98;;;0.55;;
7460;SDS011;6757;52.258;12.840;2024-02-26T01:37:37;1.00;;;0.40;;
7460;SDS011;6757;52.258;12.840;2024-02-26T01:40:05;1.05;;;0.68;;
7460;SDS011;6757;52.258;12.840;2024-02-26T01:42:37;0.65;;;0.55;;
7460;SDS011;6757;52.258;12.840;2024-02-26T01:45:06;0.22;;;0.22;;
7460;SDS011;6757;52.258;12.840;2024-02-26T01:47:47;0.17;;;0.17;;
7460;SDS011;6757;52.258;12.840;2024-02-26T01:50:17;0.55;;;0.55;;
7460;SDS011;6757;52.258;12.840;2024-02-26T01:52:44;1.60;;;0.60;;
7460;SDS011;6757;52.258;12.840;2024-02-26T01:55:13;2.40;;;1.55;;
7460;SDS011;6757;52.258;12.840;2024-02-26T01:57:40;0.20;;;0.20;;
7460;SDS011;6757;52.258;12.840;2024-02-26T02:00:08;0.60;;;0.60;;
7460;SDS011;6757;52.258;12.840;2024-02-26T02:02:37;0.43;;;0.38;;
7460;SDS011;6757;52.258;12.840;2024-02-26T02:05:08;0.45;;;0.45;;
7460;SDS011;6757;52.258;12.840;2024-02-26T02:07:36;0.40;;;0.40;;
7460;SDS011;6757;52.258;12.840;2024-02-26T02:10:05;0.20;;;0.20;;
7460;SDS011;6757;52.258;12.840;2024-02-26T02:12:34;0.60;;;0.60;;
7460;SDS011;6757;52.258;12.840;2024-02-26T02:15:05;1.10;;;0.32;;
7460;SDS011;6757;52.258;12.840;2024-02-26T02:17:33;1.65;;;0.52;;
7460;SDS011;6757;52.258;12.840;2024-02-26T02:20:00;0.35;;;0.35;;
7460;SDS011;6757;52.258;12.840;2024-02-26T02:22:30;1.23;;;0.88;;
7460;SDS011;6757;52.258;12.840;2024-02-26T02:24:58;1.90;;;0.75;;
7460;SDS011;6757;52.258;12.840;2024-02-26T02:27:25;1.17;;;1.00;;
7460;SDS011;6757;52.258;12.840;2024-02-26T02:29:53;0.20;;;0.20;;
7460;SDS011;6757;52.258;12.840;2024-02-26T02:32:22;1.27;;;0.40;;
7460;SDS011;6757;52.258;12.840;2024-02-26T02:34:52;0.93;;;0.90;;
7460;SDS011;6757;52.258;12.840;2024-02-26T02:37:20;0.20;;;0.20;;
7460;SDS011;6757;52.258;12.840;2024-02-26T02:39:48;0.22;;;0.22;;
7460;SDS011;6757;52.258;12.840;2024-02-26T02:42:16;0.20;;;0.20;;
7460;SDS011;6757;52.258;12.840;2024-02-26T02:44:43;0.28;;;0.28;;
7460;SDS011;6757;52.258;12.840;2024-02-26T02:47:11;0.73;;;0.73;;
7460;SDS011;6757;52.258;12.840;2024-02-26T02:49:38;0.90;;;0.25;;
7460;SDS011;6757;52.258;12.840;2024-02-26T02:52:08;0.28;;;0.28;;
7460;SDS011;6757;52.258;12.840;2024-02-26T02:54:35;0.63;;;0.20;;
7460;SDS011;6757;52.258;12.840;2024-02-26T02:57:08;0.52;;;0.52;;
7460;SDS011;6757;52.258;12.840;2024-02-26T02:59:38;0.32;;;0.32;;
7460;SDS011;6757;52.258;12.840;2024-02-26T03:02:06;0.57;;;0.57;;
7460;SDS011;6757;52.258;12.840;2024-02-26T03:04:33;2.10;;;0.63;;
7460;SDS011;6757;52.258;12.840;2024-02-26T03:07:02;0.75;;;0.55;;
7460;SDS011;6757;52.258;12.840;2024-02-26T03:09:29;3.17;;;1.55;;
7460;SDS011;6757;52.258;12.840;2024-02-26T03:11:57;0.45;;;0.45;;
7460;SDS011;6757;52.258;12.840;2024-02-26T03:14:26;2.80;;;0.95;;
7460;SDS011;6757;52.258;12.840;2024-02-26T03:16:53;0.20;;;0.20;;
7460;SDS011;6757;52.258;12.840;2024-02-26T03:19:20;1.08;;;0.40;;
7460;SDS011;6757;52.258;12.840;2024-02-26T03:21:47;2.72;;;0.93;;
7460;SDS011;6757;52.258;12.840;2024-02-26T03:24:15;1.80;;;0.70;;
7460;SDS011;6757;52.258;12.840;2024-02-26T03:26:42;1.35;;;0.80;;
7460;SDS011;6757;52.258;12.840;2024-02-26T03:29:09;0.60;;;0.35;;
7460;SDS011;6757;52.258;12.840;2024-02-26T03:31:38;0.30;;;0.30;;
7460;SDS011;6757;52.258;12.840;2024-02-26T03:34:05;0.47;;;0.47;;
7460;SDS011;6757;52.258;12.840;2024-02-26T03:36:32;0.20;;;0.20;;
7460;SDS011;6757;52.258;12.840;2024-02-26T03:38:59;0.20;;;0.20;;
7460;SDS011;6757;52.258;12.840;2024-02-26T03:41:29;0.57;;;0.57;;
7460;SDS011;6757;52.258;12.840;2024-02-26T03:43:57;0.47;;;0.47;;
7460;SDS011;6757;52.258;12.840;2024-02-26T03:46:24;0.45;;;0.20;;
7460;SDS011;6757;52.258;12.840;2024-02-26T03:48:55;0.45;;;0.32;;
7460;SDS011;6757;52.258;12.840;2024-02-26T03:51:22;0.85;;;0.52;;
7460;SDS011;6757;52.258;12.840;2024-02-26T03:53:51;0.30;;;0.30;;
7460;SDS011;6757;52.258;12.840;2024-02-26T03:56:19;0.43;;;0.43;;
7460;SDS011;6757;52.258;12.840;2024-02-26T03:58:48;0.00;;;0.00;;
7460;SDS011;6757;52.258;12.840;2024-02-26T04:01:14;0.55;;;0.55;;
7460;SDS011;6757;52.258;12.840;2024-02-26T04:03:41;1.08;;;0.98;;
7460;SDS011;6757;52.258;12.840;2024-02-26T04:06:10;0.35;;;0.28;;
7460;SDS011;6757;52.258;12.840;2024-02-26T04:08:39;1.90;;;0.85;;
7460;SDS011;6757;52.258;12.840;2024-02-26T04:11:06;0.70;;;0.70;;
7460;SDS011;6757;52.258;12.840;2024-02-26T04:13:34;0.90;;;0.60;;
7460;SDS011;6757;52.258;12.840;2024-02-26T04:16:03;1.38;;;0.80;;
7460;SDS011;6757;52.258;12.840;2024-02-26T04:18:31;3.85;;;1.83;;
7460;SDS011;6757;52.258;12.840;2024-02-26T04:20:59;1.80;;;0.88;;
7460;SDS011;6757;52.258;12.840;2024-02-26T04:23:28;0.40;;;0.40;;
7460;SDS011;6757;52.258;12.840;2024-02-26T04:25:55;0.70;;;0.70;;
7460;SDS011;6757;52.258;12.840;2024-02-26T04:28:23;0.30;;;0.30;;
7460;SDS011;6757;52.258;12.840;2024-02-26T04:30:54;0.08;;;0.08;;
7460;SDS011;6757;52.258;12.840;2024-02-26T04:33:20;0.60;;;0.60;;
7460;SDS011;6757;52.258;12.840;2024-02-26T04:35:48;0.20;;;0.20;;
7460;SDS011;6757;52.258;12.840;2024-02-26T04:38:15;2.75;;;0.85;;
7460;SDS011;6757;52.258;12.840;2024-02-26T04:40:44;2.55;;;0.40;;
7460;SDS011;6757;52.258;12.840;2024-02-26T04:43:11;0.43;;;0.43;;
7460;SDS011;6757;52.258;12.840;2024-02-26T04:45:37;1.85;;;0.57;;
7460;SDS011;6757;52.258;12.840;2024-02-26T04:48:05;0.52;;;0.45;;
7460;SDS011;6757;52.258;12.840;2024-02-26T04:50:33;0.47;;;0.47;;
7460;SDS011;6757;52.258;12.840;2024-02-26T04:53:03;0.08;;;0.08;;
7460;SDS011;6757;52.258;12.840;2024-02-26T04:55:30;0.60;;;0.52;;
7460;SDS011;6757;52.258;12.840;2024-02-26T04:57:59;0.32;;;0.32;;
7460;SDS011;6757;52.258;12.840;2024-02-26T05:00:26;0.45;;;0.45;;
7460;SDS011;6757;52.258;12.840;2024-02-26T05:02:53;0.88;;;0.65;;
7460;SDS011;6757;52.258;12.840;2024-02-26T05:05:21;0.35;;;0.35;;
7460;SDS011;6757;52.258;12.840;2024-02-26T05:07:49;0.30;;;0.30;;
7460;SDS011;6757;52.258;12.840;2024-02-26T05:10:16;1.10;;;0.65;;
7460;SDS011;6757;52.258;12.840;2024-02-26T05:12:43;0.65;;;0.65;;
7460;SDS011;6757;52.258;12.840;2024-02-26T05:15:12;0.20;;;0.20;;
7460;SDS011;6757;52.258;12.840;2024-02-26T05:17:43;1.80;;;0.98;;
7460;SDS011;6757;52.258;12.840;2024-02-26T05:20:10;0.85;;;0.63;;
7460;SDS011;6757;52.258;12.840;2024-02-26T05:22:37;0.20;;;0.20;;
7460;SDS011;6757;52.258;12.840;2024-02-26T05:25:05;1.65;;;0.75;;
7460;SDS011;6757;52.258;12.840;2024-02-26T05:27:32;1.85;;;1.13;;
7460;SDS011;6757;52.258;12.840;2024-02-26T05:29:59;0.20;;;0.20;;
7460;SDS011;6757;52.258;12.840;2024-02-26T05:32:29;0.17;;;0.17;;
7460;SDS011;6757;52.258;12.840;2024-02-26T05:34:57;0.10;;;0.10;;
7460;SDS011;6757;52.258;12.840;2024-02-26T05:37:25;0.30;;;0.30;;
7460;SDS011;6757;52.258;12.840;2024-02-26T05:39:52;0.60;;;0.47;;
7460;SDS011;6757;52.258;12.840;2024-02-26T05:42:19;1.17;;;0.95;;
7460;SDS011;6757;52.258;12.840;2024-02-26T05:44:47;0.65;;;0.63;;
7460;SDS011;6757;52.258;12.840;2024-02-26T05:47:14;0.82;;;0.47;;
7460;SDS011;6757;52.258;12.840;2024-02-26T05:49:43;1.23;;;0.73;;
7460;SDS011;6757;52.258;12.840;2024-02-26T05:52:12;0.50;;;0.50;;
7460;SDS011;6757;52.258;12.840;2024-02-26T05:54:39;0.57;;;0.40;;
7460;SDS011;6757;52.258;12.840;2024-02-26T05:57:08;0.13;;;0.13;;
7460;SDS011;6757;52.258;12.840;2024-02-26T05:59:36;0.65;;;0.35;;
7460;SDS011;6757;52.258;12.840;2024-02-26T06:02:03;0.55;;;0.30;;
7460;SDS011;6757;52.258;12.840;2024-02-26T06:04:31;0.30;;;0.30;;
7460;SDS011;6757;52.258;12.840;2024-02-26T06:06:59;1.27;;;0.73;;
7460;SDS011;6757;52.258;12.840;2024-02-26T06:09:27;0.80;;;0.40;;
7460;SDS011;6757;52.258;12.840;2024-02-26T06:11:53;0.25;;;0.25;;
7460;SDS011;6757;52.258;12.840;2024-02-26T06:14:20;0.40;;;0.40;;
7460;SDS011;6757;52.258;12.840;2024-02-26T06:16:49;0.10;;;0.10;;
7460;SDS011;6757;52.258;12.840;2024-02-26T06:19:17;0.20;;;0.20;;
7460;SDS011;6757;52.258;12.840;2024-02-26T06:21:43;0.52;;;0.32;;
7460;SDS011;6757;52.258;12.840;2024-02-26T06:24:13;1.20;;;1.10;;
7460;SDS011;6757;52.258;12.840;2024-02-26T06:26:41;0.55;;;0.55;;
7460;SDS011;6757;52.258;12.840;2024-02-26T06:29:10;0.30;;;0.30;;
7460;SDS011;6757;52.258;12.840;2024-02-26T06:31:36;0.10;;;0.10;;
7460;SDS011;6757;52.258;12.840;2024-02-26T06:34:05;1.17;;;0.60;;
7460;SDS011;6757;52.258;12.840;2024-02-26T06:36:33;0.45;;;0.45;;
7460;SDS011;6757;52.258;12.840;2024-02-26T06:39:01;0.73;;;0.73;;
7460;SDS011;6757;52.258;12.840;2024-02-26T06:41:31;1.48;;;0.85;;
7460;SDS011;6757;52.258;12.840;2024-02-26T06:43:59;2.38;;;0.68;;
7460;SDS011;6757;52.258;12.840;2024-02-26T06:46:25;1.15;;;1.05;;
7460;SDS011;6757;52.258;12.840;2024-02-26T06:48:55;0.93;;;0.80;;
7460;SDS011;6757;52.258;12.840;2024-02-26T06:51:25;0.57;;;0.55;;
7460;SDS011;6757;52.258;12.840;2024-02-26T06:53:52;1.33;;;0.82;;
7460;SDS011;6757;52.258;12.840;2024-02-26T06:56:20;1.00;;;0.57;;
7460;SDS011;6757;52.258;12.840;2024-02-26T06:58:49;3.45;;;1.60;;
7460;SDS011;6757;52.258;12.840;2024-02-26T07:01:15;0.20;;;0.20;;
7460;SDS011;6757;52.258;12.840;2024-02-26T07:03:44;0.52;;;0.52;;
7460;SDS011;6757;52.258;12.840;2024-02-26T07:06:12;0.73;;;0.70;;
7460;SDS011;6757;52.258;12.840;2024-02-26T07:08:39;0.80;;;0.70;;
7460;SDS011;6757;52.258;12.840;2024-02-26T07:11:07;1.00;;;0.98;;
7460;SDS011;6757;52.258;12.840;2024-02-26T07:13:34;1.77;;;0.85;;
7460;SDS011;6757;52.258;12.840;2024-02-26T07:16:04;1.77;;;1.35;;
7460;SDS011;6757;52.258;12.840;2024-02-26T07:18:32;1.35;;;1.23;;
7460;SDS011;6757;52.258;12.840;2024-02-26T07:21:01;1.15;;;0.85;;
7460;SDS011;6757;52.258;12.840;2024-02-26T07:23:31;0.93;;;0.93;;
7460;SDS011;6757;52.258;12.840;2024-02-26T07:25:58;0.98;;;0.95;;
7460;SDS011;6757;52.258;12.840;2024-02-26T07:28:26;2.15;;;1.40;;
7460;SDS011;6757;52.258;12.840;2024-02-26T07:30:54;2.55;;;1.27;;
7460;SDS011;6757;52.258;12.840;2024-02-26T07:33:23;1.20;;;0.70;;
7460;SDS011;6757;52.258;12.840;2024-02-26T07:35:50;1.15;;;0.98;;
7460;SDS011;6757;52.258;12.840;2024-02-26T07:38:18;1.05;;;0.75;;
7460;SDS011;6757;52.258;12.840;2024-02-26T07:40:46;3.13;;;1.52;;
7460;SDS011;6757;52.258;12.840;2024-02-26T07:43:13;3.47;;;1.52;;
7460;SDS011;6757;52.258;12.840;2024-02-26T07:45:40;1.33;;;1.23;;
7460;SDS011;6757;52.258;12.840;2024-02-26T07:48:07;1.95;;;1.40;;
7460;SDS011;6757;52.258;12.840;2024-02-26T07:50:36;2.20;;;1.17;;
7460;SDS011;6757;52.258;12.840;2024-02-26T07:53:05;2.22;;;1.73;;
7460;SDS011;6757;52.258;12.840;2024-02-26T07:55:34;4.00;;;2.03;;
7460;SDS011;6757;52.258;12.840;2024-02-26T07:58:01;5.85;;;1.80;;
7460;SDS011;6757;52.258;12.840;2024-02-26T08:00:28;2.20;;;1.27;;
7460;SDS011;6757;52.258;12.840;2024-02-26T08:02:55;5.25;;;1.90;;
7460;SDS011;6757;52.258;12.840;2024-02-26T08:05:23;3.75;;;1.55;;
7460;SDS011;6757;52.258;12.840;2024-02-26T08:07:53;1.25;;;1.10;;
7460;SDS011;6757;52.258;12.840;2024-02-26T08:10:20;2.92;;;1.48;;
7460;SDS011;6757;52.258;12.840;2024-02-26T08:12:47;3.35;;;1.63;;
7460;SDS011;6757;52.258;12.840;2024-02-26T08:15:15;2.45;;;1.50;;
7460;SDS011;6757;52.258;12.840;2024-02-26T08:17:43;3.80;;;2.60;;
7460;SDS011;6757;52.258;12.840;2024-02-26T08:20:12;4.03;;;2.45;;
7460;SDS011;6757;52.258;12.840;2024-02-26T08:22:40;3.05;;;1.95;;
7460;SDS011;6757;52.258;12.840;2024-02-26T08:25:10;2.75;;;2.30;;
7460;SDS011;6757;52.258;12.840;2024-02-26T08:27:37;5.20;;;2.40;;
7460;SDS011;6757;52.258;12.840;2024-02-26T08:30:04;8.57;;;3.05;;
7460;SDS011;6757;52.258;12.840;2024-02-26T08:32:33;7.00;;;2.28;;
7460;SDS011;6757;52.258;12.840;2024-02-26T08:35:01;7.70;;;3.08;;
7460;SDS011;6757;52.258;12.840;2024-02-26T08:37:28;6.82;;;3.25;;
7460;SDS011;6757;52.258;12.840;2024-02-26T08:39:55;6.22;;;3.92;;
7460;SDS011;6757;52.258;12.840;2024-02-26T08:42:25;8.70;;;2.85;;
7460;SDS011;6757;52.258;12.840;2024-02-26T08:44:52;7.30;;;3.58;;
7460;SDS011;6757;52.258;12.840;2024-02-26T08:47:19;5.05;;;2.92;;
7460;SDS011;6757;52.258;12.840;2024-02-26T08:49:47;7.68;;;3.15;;
7460;SDS011;6757;52.258;12.840;2024-02-26T08:52:15;8.63;;;2.90;;
7460;SDS011;6757;52.258;12.840;2024-02-26T08:54:42;7.78;;;3.55;;
7460;SDS011;6757;52.258;12.840;2024-02-26T08:57:09;7.82;;;2.30;;
7460;SDS011;6757;52.258;12.840;2024-02-26T08:59:38;6.88;;;3.15;;
7460;SDS011;6757;52.258;12.840;2024-02-26T09:02:05;8.10;;;2.95;;
7460;SDS011;6757;52.258;12.840;2024-02-26T09:04:33;6.93;;;3.10;;
7460;SDS011;6757;52.258;12.840;2024-02-26T09:07:00;7.22;;;3.45;;
7460;SDS011;6757;52.258;12.840;2024-02-26T09:09:28;6.07;;;3.45;;
7460;SDS011;6757;52.258;12.840;2024-02-26T09:11:55;6.53;;;2.85;;
7460;SDS011;6757;52.258;12.840;2024-02-26T09:14:27;5.25;;;2.92;;
7460;SDS011;6757;52.258;12.840;2024-02-26T09:16:55;8.13;;;3.38;;
7460;SDS011;6757;52.258;12.840;2024-02-26T09:19:23;8.20;;;4.38;;
7460;SDS011;6757;52.258;12.840;2024-02-26T09:21:52;4.18;;;2.15;;
7460;SDS011;6757;52.258;12.840;2024-02-26T09:24:22;6.47;;;3.08;;
7460;SDS011;6757;52.258;12.840;2024-02-26T09:26:49;9.00;;;3.22;;
7460;SDS011;6757;52.258;12.840;2024-02-26T09:29:17;13.25;;;4.75;;
7460;SDS011;6757;52.258;12.840;2024-02-26T09:31:43;12.10;;;3.05;;
7460;SDS011;6757;52.258;12.840;2024-02-26T09:34:13;9.18;;;4.15;;
7460;SDS011;6757;52.258;12.840;2024-02-26T09:36:40;6.70;;;3.08;;
7460;SDS011;6757;52.258;12.840;2024-02-26T09:39:07;7.05;;;3.38;;
7460;SDS011;6757;52.258;12.840;2024-02-26T09:41:36;5.88;;;2.40;;
7460;SDS011;6757;52.258;12.840;2024-02-26T09:44:04;8.35;;;3.13;;
7460;SDS011;6757;52.258;12.840;2024-02-26T09:46:32;5.15;;;2.40;;
7460;SDS011;6757;52.258;12.840;2024-02-26T09:49:00;8.63;;;4.43;;
7460;SDS011;6757;52.258;12.840;2024-02-26T09:51:29;8.45;;;3.33;;
7460;SDS011;6757;52.258;12.840;2024-02-26T09:53:57;8.32;;;3.75;;
7460;SDS011;6757;52.258;12.840;2024-02-26T09:56:26;10.70;;;4.55;;
7460;SDS011;6757;52.258;12.840;2024-02-26T09:58:54;10.82;;;3.72;;
7460;SDS011;6757;52.258;12.840;2024-02-26T10:01:24;9.80;;;4.10;;
7460;SDS011;6757;52.258;12.840;2024-02-26T10:03:53;7.18;;;3.33;;
7460;SDS011;6757;52.258;12.840;2024-02-26T10:06:23;10.80;;;3.97;;
7460;SDS011;6757;52.258;12.840;2024-02-26T10:08:54;9.02;;;3.90;;
7460;SDS011;6757;52.258;12.840;2024-02-26T10:11:23;9.45;;;3.13;;
7460;SDS011;6757;52.258;12.840;2024-02-26T10:13:50;8.05;;;2.60;;
7460;SDS011;6757;52.258;12.840;2024-02-26T10:16:19;12.20;;;4.50;;
7460;SDS011;6757;52.258;12.840;2024-02-26T10:18:47;8.25;;;3.05;;
7460;SDS011;6757;52.258;12.840;2024-02-26T10:21:15;10.13;;;3.40;;
7460;SDS011;6757;52.258;12.840;2024-02-26T10:23:43;8.07;;;3.83;;
7460;SDS011;6757;52.258;12.840;2024-02-26T10:26:12;9.25;;;3.38;;
7460;SDS011;6757;52.258;12.840;2024-02-26T10:28:41;10.30;;;4.40;;
7460;SDS011;6757;52.258;12.840;2024-02-26T10:31:10;9.07;;;3.25;;
7460;SDS011;6757;52.258;12.840;2024-02-26T10:33:38;7.47;;;3.17;;
7460;SDS011;6757;52.258;12.840;2024-02-26T10:36:07;6.88;;;2.95;;
7460;SDS011;6757;52.258;12.840;2024-02-26T10:38:35;12.85;;;4.50;;
7460;SDS011;6757;52.258;12.840;2024-02-26T10:41:03;7.65;;;3.22;;
7460;SDS011;6757;52.258;12.840;2024-02-26T10:43:33;9.73;;;3.65;;
7460;SDS011;6757;52.258;12.840;2024-02-26T10:46:00;10.13;;;3.63;;
7460;SDS011;6757;52.258;12.840;2024-02-26T10:48:28;8.25;;;3.47;;
7460;SDS011;6757;52.258;12.840;2024-02-26T10:50:55;5.72;;;3.10;;
7460;SDS011;6757;52.258;12.840;2024-02-26T10:53:23;7.32;;;3.17;;
7460;SDS011;6757;52.258;12.840;2024-02-26T10:55:57;11.10;;;4.32;;
7460;SDS011;6757;52.258;12.840;2024-02-26T10:58:28;10.88;;;4.20;;
7460;SDS011;6757;52.258;12.840;2024-02-26T11:00:57;10.02;;;3.28;;
7460;SDS011;6757;52.258;12.840;2024-02-26T11:03:28;6.57;;;3.20;;
7460;SDS011;6757;52.258;12.840;2024-02-26T11:05:59;6.50;;;2.97;;
7460;SDS011;6757;52.258;12.840;2024-02-26T11:08:28;5.45;;;2.72;;
7460;SDS011;6757;52.258;12.840;2024-02-26T11:10:58;8.10;;;2.88;;
7460;SDS011;6757;52.258;12.840;2024-02-26T11:13:26;9.35;;;3.33;;
7460;SDS011;6757;52.258;12.840;2024-02-26T11:15:58;6.50;;;2.70;;
7460;SDS011;6757;52.258;12.840;2024-02-26T11:18:26;10.43;;;2.95;;
7460;SDS011;6757;52.258;12.840;2024-02-26T11:20:54;6.15;;;2.92;;
7460;SDS011;6757;52.258;12.840;2024-02-26T11:23:23;8.80;;;3.78;;
7460;SDS011;6757;52.258;12.840;2024-02-26T11:25:50;7.55;;;2.78;;
7460;SDS011;6757;52.258;12.840;2024-02-26T11:28:21;9.13;;;3.80;;
7460;SDS011;6757;52.258;12.840;2024-02-26T11:30:52;9.02;;;3.20;;
7460;SDS011;6757;52.258;12.840;2024-02-26T11:33:24;5.57;;;2.60;;
7460;SDS011;6757;52.258;12.840;2024-02-26T11:35:51;7.93;;;3.15;;
7460;SDS011;6757;52.258;12.840;2024-02-26T11:38:19;7.07;;;2.67;;
7460;SDS011;6757;52.258;12.840;2024-02-26T11:40:48;7.30;;;3.13;;
7460;SDS011;6757;52.258;12.840;2024-02-26T11:43:17;8.02;;;3.17;;
7460;SDS011;6757;52.258;12.840;2024-02-26T11:45:47;5.60;;;3.40;;
7460;SDS011;6757;52.258;12.840;2024-02-26T11:48:23;8.52;;;3.10;;
7460;SDS011;6757;52.258;12.840;2024-02-26T11:50:51;7.88;;;3.05;;
7460;SDS011;6757;52.258;12.840;2024-02-26T11:53:23;6.57;;;2.92;;
7460;SDS011;6757;52.258;12.840;2024-02-26T11:58:43;4.90;;;2.72;;
7460;SDS011;6757;52.258;12.840;2024-02-26T12:04:13;5.75;;;2.22;;
7460;SDS011;6757;52.258;12.840;2024-02-26T12:06:45;5.90;;;2.70;;
7460;SDS011;6757;52.258;12.840;2024-02-26T12:09:32;7.47;;;3.17;;
7460;SDS011;6757;52.258;12.840;2024-02-26T12:12:01;4.35;;;2.28;;
7460;SDS011;6757;52.258;12.840;2024-02-26T12:14:32;4.25;;;2.45;;
7460;SDS011;6757;52.258;12.840;2024-02-26T12:17:01;4.70;;;2.33;;
7460;SDS011;6757;52.258;12.840;2024-02-26T12:19:33;10.52;;;2.97;;
7460;SDS011;6757;52.258;12.840;2024-02-26T12:22:01;12.10;;;3.67;;
7460;SDS011;6757;52.258;12.840;2024-02-26T12:24:30;6.35;;;2.78;;
7460;SDS011;6757;52.258;12.840;2024-02-26T12:26:58;6.15;;;2.78;;
7460;SDS011;6757;52.258;12.840;2024-02-26T12:29:25;7.47;;;2.72;;
7460;SDS011;6757;52.258;12.840;2024-02-26T12:31:52;8.55;;;2.97;;
7460;SDS011;6757;52.258;12.840;2024-02-26T12:34:19;7.70;;;2.92;;
7460;SDS011;6757;52.258;12.840;2024-02-26T12:36:48;10.32;;;3.50;;
7460;SDS011;6757;52.258;12.840;2024-02-26T12:39:16;4.97;;;2.55;;
7460;SDS011;6757;52.258;12.840;2024-02-26T12:41:45;6.47;;;2.72;;
7460;SDS011;6757;52.258;12.840;2024-02-26T12:44:14;3.85;;;2.35;;
7460;SDS011;6757;52.258;12.840;2024-02-26T12:46:41;6.28;;;2.30;;
7460;SDS011;6757;52.258;12.840;2024-02-26T12:49:08;7.65;;;2.50;;
7460;SDS011;6757;52.258;12.840;2024-02-26T12:51:43;8.30;;;2.53;;
7460;SDS011;6757;52.258;12.840;2024-02-26T12:54:12;4.95;;;2.17;;
7460;SDS011;6757;52.258;12.840;2024-02-26T12:56:40;3.83;;;2.30;;
7460;SDS011;6757;52.258;12.840;2024-02-26T12:59:08;7.07;;;2.65;;
7460;SDS011;6757;52.258;12.840;2024-02-26T13:01:35;6.13;;;2.22;;
7460;SDS011;6757;52.258;12.840;2024-02-26T13:04:03;5.18;;;2.42;;
7460;SDS011;6757;52.258;12.840;2024-02-26T13:06:32;6.03;;;2.20;;
7460;SDS011;6757;52.258;12.840;2024-02-26T13:09:00;3.53;;;1.95;;
7460;SDS011;6757;52.258;12.840;2024-02-26T13:11:29;6.53;;;2.72;;
7460;SDS011;6757;52.258;12.840;2024-02-26T13:13:56;7.80;;;3.00;;
7460;SDS011;6757;52.258;12.840;2024-02-26T13:16:24;7.18;;;3.05;;
7460;SDS011;6757;52.258;12.840;2024-02-26T13:18:52;5.53;;;2.35;;
7460;SDS011;6757;52.258;12.840;2024-02-26T13:21:19;8.65;;;2.58;;
7460;SDS011;6757;52.258;12.840;2024-02-26T13:23:48;6.13;;;3.25;;
7460;SDS011;6757;52.258;12.840;2024-02-26T13:26:21;5.95;;;2.65;;
7460;SDS011;6757;52.258;12.840;2024-02-26T13:31:28;5.22;;;2.50;;
7460;SDS011;6757;52.258;12.840;2024-02-26T13:33:56;7.68;;;2.38;;
7460;SDS011;6757;52.258;12.840;2024-02-26T13:36:24;5.93;;;2.42;;
7460;SDS011;6757;52.258;12.840;2024-02-26T13:38:53;6.18;;;2.65;;
7460;SDS011;6757;52.258;12.840;2024-02-26T13:41:22;3.50;;;1.92;;
7460;SDS011;6757;52.258;12.840;2024-02-26T13:43:52;6.38;;;2.53;;
7460;SDS011;6757;52.258;12.840;2024-02-26T13:46:21;5.00;;;2.28;;
7460;SDS011;6757;52.258;12.840;2024-02-26T13:48:50;6.45;;;2.35;;
7460;SDS011;6757;52.258;12.840;2024-02-26T13:51:19;7.88;;;2.10;;
7460;SDS011;6757;52.258;12.840;2024-02-26T13:53:46;4.95;;;2.58;;
7460;SDS011;6757;52.258;12.840;2024-02-26T13:56:14;4.05;;;2.33;;
7460;SDS011;6757;52.258;12.840;2024-02-26T13:58:40;7.28;;;2.13;;
7460;SDS011;6757;52.258;12.840;2024-02-26T14:01:07;5.07;;;2.22;;
7460;SDS011;6757;52.258;12.840;2024-02-26T14:03:35;3.15;;;2.15;;
7460;SDS011;6757;52.258;12.840;2024-02-26T14:06:02;6.50;;;3.03;;
7460;SDS011;6757;52.258;12.840;2024-02-26T14:08:30;7.40;;;2.53;;
7460;SDS011;6757;52.258;12.840;2024-02-26T14:10:57;6.80;;;2.70;;
7460;SDS011;6757;52.258;12.840;2024-02-26T14:13:25;5.47;;;2.17;;
7460;SDS011;6757;52.258;12.840;2024-02-26T14:15:52;4.95;;;2.15;;
7460;SDS011;6757;52.258;12.840;2024-02-26T14:18:19;4.65;;;1.83;;
7460;SDS011;6757;52.258;12.840;2024-02-26T14:20:48;6.80;;;2.03;;
7460;SDS011;6757;52.258;12.840;2024-02-26T14:23:16;6.53;;;2.80;;
7460;SDS011;6757;52.258;12.840;2024-02-26T14:25:43;5.18;;;2.30;;
7460;SDS011;6757;52.258;12.840;2024-02-26T14:28:10;6.18;;;2.30;;
7460;SDS011;6757;52.258;12.840;2024-02-26T14:30:38;5.25;;;2.40;;
7460;SDS011;6757;52.258;12.840;2024-02-26T14:33:04;5.78;;;2.40;;
7460;SDS011;6757;52.258;12.840;2024-02-26T14:35:32;5.78;;;2.28;;
7460;SDS011;6757;52.258;12.840;2024-02-26T14:38:02;4.40;;;2.53;;
7460;SDS011;6757;52.258;12.840;2024-02-26T14:40:29;4.97;;;2.15;;
7460;SDS011;6757;52.258;12.840;2024-02-26T14:42:57;4.35;;;2.22;;
7460;SDS011;6757;52.258;12.840;2024-02-26T14:45:24;6.43;;;2.38;;
7460;SDS011;6757;52.258;12.840;2024-02-26T14:47:51;4.18;;;2.05;;
7460;SDS011;6757;52.258;12.840;2024-02-26T14:50:19;5.45;;;2.20;;
7460;SDS011;6757;52.258;12.840;2024-02-26T14:52:46;4.88;;;2.00;;
7460;SDS011;6757;52.258;12.840;2024-02-26T14:55:15;6.60;;;2.38;;
7460;SDS011;6757;52.258;12.840;2024-02-26T14:57:43;6.78;;;2.13;;
7460;SDS011;6757;52.258;12.840;2024-02-26T15:00:10;6.20;;;2.67;;
7460;SDS011;6757;52.258;12.840;2024-02-26T15:02:38;6.28;;;2.70;;
7460;SDS011;6757;52.258;12.840;2024-02-26T15:05:05;6.57;;;2.70;;
7460;SDS011;6757;52.258;12.840;2024-02-26T15:07:36;6.38;;;2.25;;
7460;SDS011;6757;52.258;12.840;2024-02-26T15:10:05;7.63;;;2.75;;
7460;SDS011;6757;52.258;12.840;2024-02-26T15:12:36;8.13;;;2.88;;
7460;SDS011;6757;52.258;12.840;2024-02-26T15:15:03;4.70;;;2.20;;